This is the latest recevied weather packets stored in our database for station/object I3RKE-10. If no packets are shown the sender has not sent any weather packets the latest 10 day(s).
| Time | Temp. | Humidity | Pressure | Rain* | Wind** | Luminosity | Snow |
|---|---|---|---|---|---|---|---|
| 1777912011 | 38.33° C | 21% | 1009 hPa | - | - | - | - |
| 1777911111 | 38.33° C | 20% | 1008.9 hPa | - | - | - | - |
| 1777910211 | 38.89° C | 17% | 1008.9 hPa | - | - | - | - |
| 1777909311 | 35.56° C | 17% | 1008.8 hPa | - | - | - | - |
| 1777908411 | 35.56° C | 18% | 1008.9 hPa | - | - | - | - |
| 1777907510 | 27.78° C | 28% | 1009 hPa | - | - | - | - |
| 1777906610 | 27.22° C | 32% | 1009 hPa | - | - | - | - |
| 1777905710 | 27.22° C | 33% | 1009.1 hPa | - | - | - | - |
| 1777904810 | 26.67° C | 34% | 1009.2 hPa | - | - | - | - |
| 1777903909 | 27.78° C | 32% | 1009.4 hPa | - | - | - | - |
| 1777903009 | 27.78° C | 32% | 1009.4 hPa | - | - | - | - |
| 1777902109 | 27.22° C | 29% | 1009.5 hPa | - | - | - | - |
| 1777901209 | 27.78° C | 27% | 1009.5 hPa | - | - | - | - |
| 1777900309 | 28.33° C | 27% | 1009.7 hPa | - | - | - | - |
| 1777899409 | 28.89° C | 25% | 1009.7 hPa | - | - | - | - |
| 1777898509 | 28.33° C | 26% | 1009.9 hPa | - | - | - | - |
| 1777897609 | 28.33° C | 25% | 1010 hPa | - | - | - | - |
| 1777896709 | 28.33° C | 25% | 1010.1 hPa | - | - | - | - |
| 1777895809 | 28.89° C | 25% | 1010.2 hPa | - | - | - | - |
| 1777894908 | 28.89° C | 25% | 1010.3 hPa | - | - | - | - |
| 1777894008 | 27.78° C | 26% | 1010.4 hPa | - | - | - | - |
| 1777893108 | 26.11° C | 27% | 1010.6 hPa | - | - | - | - |
| 1777892208 | 27.78° C | 26% | 1010.8 hPa | - | - | - | - |
| 1777891308 | 26.11° C | 27% | 1011 hPa | - | - | - | - |
| 1777890408 | 26.11° C | 27% | 1011 hPa | - | - | - | - |
* Rain since midnight (hover to see other rain measurements)
** Current wind speed in m/s (hover to see current wind gust speed)